sensor_id;sensor_type;location;lat;lon;timestamp;pressure;altitude;pressure_sealevel;temperature;humidity
33781;BME280;20097;50.832;19.100;2023-01-09T00:03:00;97228.38;;;5.15;100.00
33781;BME280;20097;50.832;19.100;2023-01-09T00:08:08;97225.78;;;5.15;100.00
33781;BME280;20097;50.832;19.100;2023-01-09T00:13:23;97211.69;;;5.18;100.00
33781;BME280;20097;50.832;19.100;2023-01-09T00:18:28;97207.69;;;5.15;100.00
33781;BME280;20097;50.832;19.100;2023-01-09T00:23:35;97207.72;;;5.07;100.00
33781;BME280;20097;50.832;19.100;2023-01-09T00:28:49;97202.25;;;4.94;100.00
33781;BME280;20097;50.832;19.100;2023-01-09T00:34:05;97200.47;;;4.87;100.00
33781;BME280;20097;50.832;19.100;2023-01-09T00:39:21;97195.66;;;4.68;100.00
33781;BME280;20097;50.832;19.100;2023-01-09T00:44:40;97188.88;;;4.59;100.00
33781;BME280;20097;50.832;19.100;2023-01-09T00:49:55;97183.25;;;4.47;100.00
33781;BME280;20097;50.832;19.100;2023-01-09T00:55:08;97186.13;;;4.44;100.00
33781;BME280;20097;50.832;19.100;2023-01-09T01:00:26;97199.53;;;4.40;100.00
33781;BME280;20097;50.832;19.100;2023-01-09T01:05:45;97186.47;;;4.33;100.00
33781;BME280;20097;50.832;19.100;2023-01-09T01:11:12;97199.53;;;4.32;100.00
33781;BME280;20097;50.832;19.100;2023-01-09T01:16:31;97177.59;;;4.28;100.00
33781;BME280;20097;50.832;19.100;2023-01-09T01:21:39;97176.13;;;4.25;100.00
33781;BME280;20097;50.832;19.100;2023-01-09T01:26:49;97172.13;;;4.22;100.00
33781;BME280;20097;50.832;19.100;2023-01-09T01:31:58;97167.28;;;4.19;100.00
33781;BME280;20097;50.832;19.100;2023-01-09T01:37:08;97167.75;;;4.15;100.00
33781;BME280;20097;50.832;19.100;2023-01-09T01:42:21;97160.66;;;4.09;100.00
33781;BME280;20097;50.832;19.100;2023-01-09T01:47:34;97145.00;;;4.02;100.00
33781;BME280;20097;50.832;19.100;2023-01-09T01:52:41;97145.16;;;4.01;100.00
33781;BME280;20097;50.832;19.100;2023-01-09T01:57:53;97136.75;;;3.99;100.00
33781;BME280;20097;50.832;19.100;2023-01-09T02:03:10;97142.25;;;3.96;100.00
33781;BME280;20097;50.832;19.100;2023-01-09T02:08:16;97120.94;;;3.94;100.00
33781;BME280;20097;50.832;19.100;2023-01-09T02:13:27;97130.47;;;3.93;100.00
33781;BME280;20097;50.832;19.100;2023-01-09T02:18:53;97125.44;;;3.92;100.00
33781;BME280;20097;50.832;19.100;2023-01-09T02:24:35;97122.06;;;3.83;100.00
33781;BME280;20097;50.832;19.100;2023-01-09T02:30:31;97122.41;;;3.80;100.00
33781;BME280;20097;50.832;19.100;2023-01-09T02:36:00;97134.31;;;3.73;100.00
33781;BME280;20097;50.832;19.100;2023-01-09T02:41:17;97125.09;;;3.63;100.00
33781;BME280;20097;50.832;19.100;2023-01-09T02:46:43;97121.06;;;3.60;100.00
33781;BME280;20097;50.832;19.100;2023-01-09T02:51:53;97115.41;;;3.57;100.00
33781;BME280;20097;50.832;19.100;2023-01-09T02:57:21;97104.78;;;3.52;100.00
33781;BME280;20097;50.832;19.100;2023-01-09T03:02:52;97105.75;;;3.51;100.00
33781;BME280;20097;50.832;19.100;2023-01-09T03:08:09;97101.84;;;3.47;100.00
33781;BME280;20097;50.832;19.100;2023-01-09T03:13:23;97085.59;;;3.46;100.00
33781;BME280;20097;50.832;19.100;2023-01-09T03:18:39;97078.66;;;3.47;100.00
33781;BME280;20097;50.832;19.100;2023-01-09T03:23:54;97081.06;;;3.48;100.00
33781;BME280;20097;50.832;19.100;2023-01-09T03:29:04;97079.97;;;3.51;100.00
33781;BME280;20097;50.832;19.100;2023-01-09T03:34:13;97076.56;;;3.50;100.00
33781;BME280;20097;50.832;19.100;2023-01-09T03:39:21;97069.47;;;3.52;100.00
33781;BME280;20097;50.832;19.100;2023-01-09T03:44:34;97052.84;;;3.55;100.00
33781;BME280;20097;50.832;19.100;2023-01-09T03:49:43;97059.81;;;3.54;100.00
33781;BME280;20097;50.832;19.100;2023-01-09T03:54:53;97041.91;;;3.53;100.00
33781;BME280;20097;50.832;19.100;2023-01-09T03:59:58;97051.59;;;3.51;100.00
33781;BME280;20097;50.832;19.100;2023-01-09T04:05:10;97047.22;;;3.51;100.00
33781;BME280;20097;50.832;19.100;2023-01-09T04:10:20;97043.84;;;3.51;100.00
33781;BME280;20097;50.832;19.100;2023-01-09T04:15:25;97029.97;;;3.52;100.00
33781;BME280;20097;50.832;19.100;2023-01-09T04:20:31;97033.03;;;3.47;100.00
33781;BME280;20097;50.832;19.100;2023-01-09T04:25:41;97028.03;;;3.46;100.00
33781;BME280;20097;50.832;19.100;2023-01-09T04:31:03;97019.66;;;3.44;100.00
33781;BME280;20097;50.832;19.100;2023-01-09T04:36:18;97019.00;;;3.42;100.00
33781;BME280;20097;50.832;19.100;2023-01-09T04:41:25;97010.47;;;3.41;100.00
33781;BME280;20097;50.832;19.100;2023-01-09T04:46:56;97007.25;;;3.39;100.00
33781;BME280;20097;50.832;19.100;2023-01-09T04:52:11;97005.31;;;3.33;100.00
33781;BME280;20097;50.832;19.100;2023-01-09T04:57:27;96994.50;;;3.30;100.00
33781;BME280;20097;50.832;19.100;2023-01-09T05:02:49;96999.66;;;3.30;100.00
33781;BME280;20097;50.832;19.100;2023-01-09T05:07:58;96988.53;;;3.21;100.00
33781;BME280;20097;50.832;19.100;2023-01-09T05:13:03;96985.63;;;3.24;100.00
33781;BME280;20097;50.832;19.100;2023-01-09T05:18:13;96987.25;;;3.25;100.00
33781;BME280;20097;50.832;19.100;2023-01-09T05:23:46;96979.38;;;3.27;100.00
33781;BME280;20097;50.832;19.100;2023-01-09T05:28:58;96985.31;;;3.19;100.00
33781;BME280;20097;50.832;19.100;2023-01-09T05:34:11;96973.22;;;3.20;100.00
33781;BME280;20097;50.832;19.100;2023-01-09T05:39:26;96970.16;;;3.24;100.00
33781;BME280;20097;50.832;19.100;2023-01-09T05:44:44;96970.81;;;3.26;100.00
33781;BME280;20097;50.832;19.100;2023-01-09T05:49:49;96955.84;;;3.30;100.00
33781;BME280;20097;50.832;19.100;2023-01-09T05:55:01;96948.44;;;3.35;100.00
33781;BME280;20097;50.832;19.100;2023-01-09T06:00:10;96930.22;;;3.36;100.00
33781;BME280;20097;50.832;19.100;2023-01-09T06:05:24;96919.41;;;3.41;100.00
33781;BME280;20097;50.832;19.100;2023-01-09T06:10:44;96920.69;;;3.45;100.00
33781;BME280;20097;50.832;19.100;2023-01-09T06:15:55;96916.97;;;3.47;100.00
33781;BME280;20097;50.832;19.100;2023-01-09T06:21:03;96920.38;;;3.56;100.00
33781;BME280;20097;50.832;19.100;2023-01-09T06:26:20;96915.34;;;3.62;100.00
33781;BME280;20097;50.832;19.100;2023-01-09T06:31:33;96917.28;;;3.68;100.00
33781;BME280;20097;50.832;19.100;2023-01-09T06:36:38;96914.19;;;3.73;100.00
33781;BME280;20097;50.832;19.100;2023-01-09T06:41:44;96907.41;;;3.80;100.00
33781;BME280;20097;50.832;19.100;2023-01-09T06:46:53;96907.53;;;3.94;100.00
33781;BME280;20097;50.832;19.100;2023-01-09T06:52:01;96916.53;;;4.06;100.00
33781;BME280;20097;50.832;19.100;2023-01-09T06:57:14;96907.59;;;4.17;100.00
33781;BME280;20097;50.832;19.100;2023-01-09T07:02:22;96905.00;;;4.25;100.00
33781;BME280;20097;50.832;19.100;2023-01-09T07:07:32;96904.44;;;4.38;100.00
33781;BME280;20097;50.832;19.100;2023-01-09T07:12:41;96916.53;;;4.45;100.00
33781;BME280;20097;50.832;19.100;2023-01-09T07:17:46;96912.75;;;4.56;100.00
33781;BME280;20097;50.832;19.100;2023-01-09T07:23:00;96916.59;;;4.60;100.00
33781;BME280;20097;50.832;19.100;2023-01-09T07:28:09;96919.66;;;4.63;100.00
33781;BME280;20097;50.832;19.100;2023-01-09T07:33:14;96914.63;;;4.70;100.00
33781;BME280;20097;50.832;19.100;2023-01-09T07:38:25;96910.00;;;4.80;100.00
33781;BME280;20097;50.832;19.100;2023-01-09T07:43:37;96918.19;;;4.91;100.00
33781;BME280;20097;50.832;19.100;2023-01-09T07:48:48;96919.09;;;4.98;100.00
33781;BME280;20097;50.832;19.100;2023-01-09T07:53:55;96916.81;;;5.03;100.00
33781;BME280;20097;50.832;19.100;2023-01-09T07:59:10;96906.22;;;5.13;100.00
33781;BME280;20097;50.832;19.100;2023-01-09T08:04:21;96908.47;;;5.16;100.00
33781;BME280;20097;50.832;19.100;2023-01-09T08:09:26;96898.06;;;5.24;100.00
33781;BME280;20097;50.832;19.100;2023-01-09T08:14:32;96897.38;;;5.30;100.00
33781;BME280;20097;50.832;19.100;2023-01-09T08:19:44;96896.13;;;5.40;100.00
33781;BME280;20097;50.832;19.100;2023-01-09T08:24:57;96895.72;;;5.51;100.00
33781;BME280;20097;50.832;19.100;2023-01-09T08:30:08;96891.44;;;5.58;100.00
33781;BME280;20097;50.832;19.100;2023-01-09T08:35:19;96891.91;;;5.62;100.00
33781;BME280;20097;50.832;19.100;2023-01-09T08:40:36;96897.19;;;5.69;100.00
33781;BME280;20097;50.832;19.100;2023-01-09T08:45:45;96882.09;;;5.72;100.00
33781;BME280;20097;50.832;19.100;2023-01-09T08:51:18;96884.28;;;5.83;100.00
33781;BME280;20097;50.832;19.100;2023-01-09T08:56:25;96878.38;;;5.89;100.00
33781;BME280;20097;50.832;19.100;2023-01-09T09:01:49;96881.13;;;6.02;100.00
33781;BME280;20097;50.832;19.100;2023-01-09T09:07:00;96881.84;;;6.11;100.00
33781;BME280;20097;50.832;19.100;2023-01-09T09:12:05;96877.13;;;6.14;100.00
33781;BME280;20097;50.832;19.100;2023-01-09T09:17:11;96866.47;;;6.24;100.00
33781;BME280;20097;50.832;19.100;2023-01-09T09:22:24;96865.94;;;6.28;100.00
33781;BME280;20097;50.832;19.100;2023-01-09T09:27:39;96864.84;;;6.37;100.00
33781;BME280;20097;50.832;19.100;2023-01-09T09:32:51;96859.94;;;6.42;100.00
33781;BME280;20097;50.832;19.100;2023-01-09T09:37:58;96851.16;;;6.43;100.00
33781;BME280;20097;50.832;19.100;2023-01-09T09:43:35;96840.25;;;6.48;100.00
33781;BME280;20097;50.832;19.100;2023-01-09T09:49:11;96841.13;;;6.55;100.00
33781;BME280;20097;50.832;19.100;2023-01-09T09:54:29;96826.97;;;6.57;100.00
33781;BME280;20097;50.832;19.100;2023-01-09T09:59:37;96834.03;;;6.63;100.00
33781;BME280;20097;50.832;19.100;2023-01-09T10:04:55;96835.50;;;6.72;100.00
33781;BME280;20097;50.832;19.100;2023-01-09T10:10:13;96840.56;;;6.80;100.00
33781;BME280;20097;50.832;19.100;2023-01-09T10:15:37;96834.63;;;6.86;100.00
33781;BME280;20097;50.832;19.100;2023-01-09T10:20:55;96832.03;;;6.86;100.00
33781;BME280;20097;50.832;19.100;2023-01-09T10:26:07;96821.28;;;6.89;100.00
33781;BME280;20097;50.832;19.100;2023-01-09T10:31:28;96822.91;;;6.90;100.00
33781;BME280;20097;50.832;19.100;2023-01-09T10:36:58;96816.97;;;6.96;100.00
33781;BME280;20097;50.832;19.100;2023-01-09T10:42:25;96819.25;;;7.06;100.00
33781;BME280;20097;50.832;19.100;2023-01-09T10:47:37;96820.09;;;7.13;100.00
33781;BME280;20097;50.832;19.100;2023-01-09T10:52:55;96813.56;;;7.17;100.00
33781;BME280;20097;50.832;19.100;2023-01-09T10:58:03;96804.41;;;7.21;100.00
33781;BME280;20097;50.832;19.100;2023-01-09T11:03:22;96805.25;;;7.28;100.00
33781;BME280;20097;50.832;19.100;2023-01-09T11:08:46;96811.88;;;7.37;100.00
33781;BME280;20097;50.832;19.100;2023-01-09T11:14:14;96798.97;;;7.44;100.00
33781;BME280;20097;50.832;19.100;2023-01-09T11:19:37;96804.38;;;7.49;100.00
33781;BME280;20097;50.832;19.100;2023-01-09T11:25:02;96801.22;;;7.53;100.00
33781;BME280;20097;50.832;19.100;2023-01-09T11:30:21;96795.28;;;7.59;100.00
33781;BME280;20097;50.832;19.100;2023-01-09T11:35:34;96793.31;;;7.68;100.00
33781;BME280;20097;50.832;19.100;2023-01-09T11:40:48;96793.53;;;7.73;100.00
33781;BME280;20097;50.832;19.100;2023-01-09T11:45:58;96795.59;;;7.90;100.00
33781;BME280;20097;50.832;19.100;2023-01-09T11:51:20;96800.84;;;7.97;100.00
33781;BME280;20097;50.832;19.100;2023-01-09T11:56:36;96802.47;;;8.04;100.00
33781;BME280;20097;50.832;19.100;2023-01-09T12:02:16;96792.50;;;8.08;100.00
33781;BME280;20097;50.832;19.100;2023-01-09T12:08:26;96795.25;;;7.93;100.00
33781;BME280;20097;50.832;19.100;2023-01-09T12:14:28;96782.47;;;7.92;100.00
33781;BME280;20097;50.832;19.100;2023-01-09T12:20:06;96781.28;;;8.01;100.00
33781;BME280;20097;50.832;19.100;2023-01-09T12:25:29;96776.53;;;8.11;100.00
33781;BME280;20097;50.832;19.100;2023-01-09T12:30:53;96772.91;;;8.12;100.00
33781;BME280;20097;50.832;19.100;2023-01-09T12:36:16;96769.34;;;8.13;100.00
33781;BME280;20097;50.832;19.100;2023-01-09T12:42:03;96763.59;;;8.24;100.00
33781;BME280;20097;50.832;19.100;2023-01-09T12:47:42;96764.94;;;8.20;100.00
33781;BME280;20097;50.832;19.100;2023-01-09T12:53:10;96774.59;;;8.26;100.00
33781;BME280;20097;50.832;19.100;2023-01-09T12:58:31;96782.41;;;8.26;100.00
33781;BME280;20097;50.832;19.100;2023-01-09T13:03:49;96774.56;;;8.19;100.00
33781;BME280;20097;50.832;19.100;2023-01-09T13:09:24;96773.94;;;8.17;100.00
33781;BME280;20097;50.832;19.100;2023-01-09T13:14:54;96768.56;;;8.19;100.00
33781;BME280;20097;50.832;19.100;2023-01-09T13:20:19;96752.19;;;8.25;100.00
33781;BME280;20097;50.832;19.100;2023-01-09T13:25:39;96754.41;;;8.28;100.00
33781;BME280;20097;50.832;19.100;2023-01-09T13:36:46;96767.53;;;8.20;100.00
33781;BME280;20097;50.832;19.100;2023-01-09T13:41:56;96782.41;;;8.26;100.00
33781;BME280;20097;50.832;19.100;2023-01-09T13:47:23;96799.78;;;8.25;100.00
33781;BME280;20097;50.832;19.100;2023-01-09T13:52:36;96815.75;;;8.22;100.00
33781;BME280;20097;50.832;19.100;2023-01-09T13:57:43;96823.13;;;8.19;100.00
33781;BME280;20097;50.832;19.100;2023-01-09T14:03:05;96834.09;;;8.14;100.00
33781;BME280;20097;50.832;19.100;2023-01-09T14:08:19;96845.06;;;8.10;100.00
33781;BME280;20097;50.832;19.100;2023-01-09T14:13:30;96857.47;;;8.08;100.00
33781;BME280;20097;50.832;19.100;2023-01-09T14:18:45;96842.25;;;8.05;100.00
33781;BME280;20097;50.832;19.100;2023-01-09T14:24:03;96840.06;;;8.08;100.00
33781;BME280;20097;50.832;19.100;2023-01-09T14:29:42;96856.47;;;8.09;100.00
33781;BME280;20097;50.832;19.100;2023-01-09T14:34:57;96865.03;;;8.03;100.00
33781;BME280;20097;50.832;19.100;2023-01-09T14:40:21;96884.38;;;8.00;100.00
33781;BME280;20097;50.832;19.100;2023-01-09T14:45:29;96887.19;;;7.99;100.00
33781;BME280;20097;50.832;19.100;2023-01-09T14:50:51;96882.56;;;7.94;100.00
33781;BME280;20097;50.832;19.100;2023-01-09T14:56:25;96898.31;;;7.86;100.00
33781;BME280;20097;50.832;19.100;2023-01-09T15:01:37;96904.25;;;7.80;100.00
33781;BME280;20097;50.832;19.100;2023-01-09T15:06:47;96911.19;;;7.73;100.00
33781;BME280;20097;50.832;19.100;2023-01-09T15:12:03;96918.19;;;7.73;100.00
33781;BME280;20097;50.832;19.100;2023-01-09T15:17:23;96919.38;;;7.70;100.00
33781;BME280;20097;50.832;19.100;2023-01-09T15:22:34;96926.16;;;7.71;100.00
33781;BME280;20097;50.832;19.100;2023-01-09T15:27:47;96924.13;;;7.67;100.00
33781;BME280;20097;50.832;19.100;2023-01-09T15:32:56;96929.72;;;7.64;100.00
33781;BME280;20097;50.832;19.100;2023-01-09T15:38:14;96959.81;;;7.58;100.00
33781;BME280;20097;50.832;19.100;2023-01-09T15:43:20;96964.44;;;7.63;100.00
33781;BME280;20097;50.832;19.100;2023-01-09T15:48:33;96958.03;;;7.59;100.00
33781;BME280;20097;50.832;19.100;2023-01-09T15:53:44;96962.16;;;7.53;100.00
33781;BME280;20097;50.832;19.100;2023-01-09T15:58:55;96964.09;;;7.45;100.00
33781;BME280;20097;50.832;19.100;2023-01-09T16:04:09;96988.19;;;7.39;100.00
33781;BME280;20097;50.832;19.100;2023-01-09T16:09:16;96997.41;;;7.41;100.00
33781;BME280;20097;50.832;19.100;2023-01-09T16:14:37;96993.38;;;7.39;100.00
33781;BME280;20097;50.832;19.100;2023-01-09T16:19:48;96996.97;;;7.38;100.00
33781;BME280;20097;50.832;19.100;2023-01-09T16:25:26;96999.75;;;7.36;100.00
33781;BME280;20097;50.832;19.100;2023-01-09T16:30:33;97006.09;;;7.34;100.00
33781;BME280;20097;50.832;19.100;2023-01-09T16:35:43;97017.13;;;7.36;100.00
33781;BME280;20097;50.832;19.100;2023-01-09T16:41:03;97019.34;;;7.39;100.00
33781;BME280;20097;50.832;19.100;2023-01-09T16:46:38;97031.09;;;7.35;100.00
33781;BME280;20097;50.832;19.100;2023-01-09T16:51:46;97039.25;;;7.32;100.00
33781;BME280;20097;50.832;19.100;2023-01-09T16:56:59;97032.50;;;7.37;100.00
33781;BME280;20097;50.832;19.100;2023-01-09T17:02:18;97053.19;;;7.31;100.00
33781;BME280;20097;50.832;19.100;2023-01-09T17:07:32;97058.22;;;7.18;100.00
33781;BME280;20097;50.832;19.100;2023-01-09T17:12:42;97059.22;;;7.17;100.00
33781;BME280;20097;50.832;19.100;2023-01-09T17:17:48;97058.59;;;7.15;100.00
33781;BME280;20097;50.832;19.100;2023-01-09T17:22:53;97054.59;;;7.12;100.00
33781;BME280;20097;50.832;19.100;2023-01-09T17:28:01;97058.09;;;7.05;100.00
33781;BME280;20097;50.832;19.100;2023-01-09T17:33:26;97070.28;;;7.04;100.00
33781;BME280;20097;50.832;19.100;2023-01-09T17:38:30;97085.56;;;6.99;100.00
33781;BME280;20097;50.832;19.100;2023-01-09T17:43:35;97085.56;;;6.99;100.00
33781;BME280;20097;50.832;19.100;2023-01-09T17:48:41;97103.72;;;6.99;100.00
33781;BME280;20097;50.832;19.100;2023-01-09T17:53:48;97113.09;;;7.00;100.00
